Tiempo atmosférico en la estación meteorológica de Ólvega, Soria (1039 m.)



Fecha
DESCASC
Temp. máxima en grados centígrados (hora)
DESCASC
Temp. mínima en grados centígrados (hora)
DESCASC
Temp. media en grados centígrados
DESCASC
Racha de viento máxima en m/sg (hora)
DESCASC
Velocidad máxima media en intervalos de 10 minutos(hora)
DESCASC
Precipitaciones diarias en mm
DESCASC
Precipitaciones de 00:00 a 06:00 en mm
DESCASC
Precipitaciones de 06:00 a 12:00 en mm
DESCASC
Precipitaciones de 12:00 a 18:00 en mm
DESCASC
Precipitaciones de 18:00 a 24:00 en mm
DESCASC
22-04-2019 14.1 (16:40) 1.8 (07:30) 8 7.78 (22:40) 6.11 (22:50) 0.6 0.6 0 0 0
21-04-2019 7.9 (00:00) 5 (04:20) 6.5 10.28 (02:20) 6.67 (00:10) 1.8 0.2 0.2 0.6 0.8
20-04-2019 16.9 (16:30) 6 (04:50) 11.4 13.33 (23:40) 7.78 (16:00) 0 0 0 0 0
19-04-2019 13.4 (18:10) 6.4 (02:10) 9.9 15.83 (21:50) 9.17 (05:30) 19.4 15 4.4 0 0
18-04-2019 14.7 (00:10) 7 (00:00) 10.8 14.44 (13:40) 8.33 (13:20) 10.2 0 4.8 1.2 4.2
17-04-2019 20.1 (15:50) 7 (00:00) 13.6 14.17 (21:20) 9.17 (01:50) 0 0 0 0 0
16-04-2019 18 (17:10) 6.2 (00:00) 12.1 13.89 (23:30) 8.89 (23:30) 0.2 0.2 0 0 0
15-04-2019 21.1 (15:50) 8.1 (00:00) 14.6 15.56 (18:00) 9.72 (18:00) 4.6 0 0 2.2 2.4
14-04-2019 18.7 (17:40) 4.3 (00:00) 11.5 7.78 (19:40) 5.28 (19:40) 0 0 0 0 0
13-04-2019 20.1 (18:00) -2.5 (-00:0) 8.8 8.06 (13:40) 5 (19:20) 0 0 0 0 0
12-04-2019 12.2 (18:00) 1.7 (00:00) 6.9 11.67 (13:10) 7.5 (12:00) 0 0 0 0 0
11-04-2019 9.4 (15:50) 2.6 (00:00) 6 13.33 (17:10) 8.33 (17:10) 0 0 0 0 0
10-04-2019 9.6 (17:10) 1.3 (00:00) 5.5 11.67 (18:40) 7.22 (19:40) 0 0 0 0 0
09-04-2019 11.1 (13:40) 3.3 (00:00) 7.2 12.22 (13:50) 6.67 (14:30) 0.4 0 0 0.2 0.2
08-04-2019 14.6 (17:20) 3.7 (00:00) 9.2 11.94 (03:40) 6.39 (03:50) 0.6 0.4 0.2 0 0
07-04-2019 11 (17:40) 1.1 (00:00) 6.1 13.89 (03:00) 7.5 (03:00) 0 0 0 0 0
06-04-2019 6.6 (15:10) 1.1 (00:00) 3.8 14.72 (10:00) 8.89 (10:30) 3.6 0.2 0 2.4 1
05-04-2019 6.8 (17:10) 1.3 (00:00) 4.1 14.17 (07:20) 9.17 (16:40) 3.2 0 0.8 1.2 1.2
04-04-2019 11.5 (18:20) -4.6 (-00:0) 3.5 10.83 (15:20) 5.56 (19:30) 0 0 0 0 0
03-04-2019 6.2 (13:00) -0.6 (22:50) 2.8 9.17 (18:10) 6.11 (18:10) 0.8 0.2 0.2 0.4 0
02-04-2019 13.9 (13:10) 2.6 (00:00) 8.2 8.33 (14:30) 5 (14:20) 2.6 0 0 1.2 1.4
01-04-2019 13.3 (15:20) 4.1 (00:00) 8.7 8.06 (15:50) 4.17 (16:10) 4 0.6 0 1.6 1.8
31-03-2019 10.5 (10:50) -0.3 (00:00) 5.1 7.78 (01:40) 4.72 (21:10) 4.6 0 0 0 4.6
30-03-2019 16.2 (15:40) 0.7 (00:00) 8.5 10 (00:20) 7.22 (00:20) 0 0 0 0 0
29-03-2019 16.3 (15:40) 0.8 (00:00) 8.5 17.78 (20:40) 10 (20:40) 0 0 0 0 0
28-03-2019 14.4 (16:20) -1.3 (-00:0) 6.5 8.61 (15:30) 4.17 (16:50) 0 0 0 0 0
27-03-2019 14.1 (16:00) -2.3 (-00:0) 5.9 11.11 (15:10) 6.39 (15:30) 0 0 0 0 0
26-03-2019 13.8 (15:10) 0.2 (00:00) 7 11.67 (13:40) 6.11 (15:40) 0 0 0 0 0
25-03-2019 11.9 (15:30) 3.6 (00:00) 7.7 11.67 (17:10) 8.06 (16:40) 0 0 0 0 0

Gráficas

Temp. máximas Temp. mínimas Temp. medias Precipitaciones Rachas de viento máximas Velocidades máximas media en intervalos de 10 minutos

Datos horarios

Fecha y hora oficial Temperatura (ºC) Velocidad del viento (km/h) Dirección del viento Racha (km/h) Dirección de racha Precipitación (mm) Presión (hPa) Tendencia (hPa) Humedad (%)
2019-04-23 23:00:00 3.9 21 Sur 36 Sudoeste 0 -- -- 82
2019-04-23 22:00:00 4.3 14 Sudoeste 34 Sudoeste 0 -- -- 81
2019-04-23 21:00:00 5 25 Sudoeste 56 Sudoeste 0 -- -- 80
2019-04-23 20:00:00 8.1 15 Sur 43 Sur 0 -- -- 61
2019-04-23 19:00:00 7.1 20 Sur 53 Sur 0 -- -- 70
2019-04-23 18:00:00 6.9 26 Sudoeste 54 Sudoeste 0.2 -- -- 82
2019-04-23 17:00:00 9.2 27 Sur 48 Sudeste 0 -- -- 73
2019-04-23 16:00:00 9.8 30 Sur 49 Sur 0.6 -- -- 72
2019-04-23 15:00:00 6.9 28 Sudoeste 60 Sur 0.6 -- -- 80
2019-04-23 14:00:00 8 22 Sur 48 Sur 1.6 -- -- 82
2019-04-23 13:00:00 9.7 14 Sur 37 Sur 0.2 -- -- 76
2019-04-23 12:00:00 9.9 21 Sur 42 Sudoeste 0 -- -- 75
2019-04-23 11:00:00 9.9 23 Sur 39 Sudeste 0 -- -- 73
2019-04-23 10:00:00 10.1 20 Sur 49 Sur 0 -- -- 68
2019-04-23 09:00:00 9.2 15 Sur 34 Sur 0 -- -- 75
2019-04-23 08:00:00 8.9 10 Sur 30 Sudeste 0 -- -- 79
2019-04-23 07:00:00 8.5 18 Sur 30 Sur 0 -- -- 80
2019-04-23 06:00:00 8.8 19 Sur 33 Sur 0 -- -- 78
2019-04-23 05:00:00 9.2 21 Sur 40 Sudeste 0 -- -- 76
2019-04-23 04:00:00 9.2 16 Sur 33 Sur 0 -- -- 76
2019-04-23 03:00:00 10.1 22 Sur 33 Sur 0 -- -- 73
2019-04-23 02:00:00 9.7 13 Sudeste 26 Sudeste 0 -- -- 78
2019-04-23 01:00:00 9.7 12 Sudeste 21 Sudeste 0 -- -- 78
2019-04-23 00:00:00 10.3 15 Sur 23 Sur 0 -- -- 74
2019-04-22 23:00:00 9.9 16 Sudeste 28 Sudeste 0 -- -- 75
2019-04-22 22:00:00 9.3 10 Sudeste 20 Sudeste 0 -- -- 77
2019-04-22 21:00:00 9.1 8 Sudeste 17 Sur 0 -- -- 78
2019-04-22 20:00:00 12.4 11 Sur 18 Sur 0 -- -- 63
2019-04-22 19:00:00 13.9 4 Sur 21 Sudeste 0 -- -- 58
2019-04-22 18:00:00 12.7 8 Sudeste 21 Sudeste 0 -- -- 62
2019-04-22 17:00:00 13.8 11 Sur 25 Sudoeste 0 -- -- 57
2019-04-22 16:00:00 12.9 9 Sur 21 Sur 0 -- -- 60
2019-04-22 15:00:00 11.8 11 Sur 17 Sur 0 -- -- 61
2019-04-22 14:00:00 11.6 10 Sur 17 Sur 0 -- -- 60
2019-04-22 13:00:00 11.6 9 Sur 21 Sur 0 -- -- 61
2019-04-22 12:00:00 10.7 13 Sur 27 Sur 0 -- -- 61
2019-04-22 11:00:00 11.9 13 Sur 26 Sur 0 -- -- 57
2019-04-22 10:00:00 12.3 2 Nordeste 10 Sudeste 0 -- -- 65
2019-04-22 09:00:00 7.3 5 Sudeste 9 Sudeste 0 -- -- 87
2019-04-22 08:00:00 2.1 6 Sudeste 9 Sudeste 0 -- -- 96
2019-04-22 07:00:00 1.9 5 Sudeste 8 Sudeste 0 -- -- 95
2019-04-22 06:00:00 2.8 4 Sudeste 10 Sudeste 0 -- -- 94
2019-04-22 05:00:00 4.6 5 Sur 9 Sudoeste 0 -- -- 92
2019-04-22 04:00:00 4.8 3 Oeste 9 Sur 0 -- -- 91
2019-04-22 03:00:00 5.2 3 Noroeste 7 Oeste 0 -- -- 91
2019-04-22 02:00:00 6 3 Oeste 10 Noroeste 0.2 -- -- 88
2019-04-22 01:00:00 5.9 5 Noroeste 12 Noroeste 0.4 -- -- 92
2019-04-22 00:00:00 6.4 5 Noroeste 13 Oeste 0.2 -- -- 88
2019-04-21 23:00:00 6.6 5 Noroeste 13 Noroeste 0.6 -- -- 89
2019-04-21 22:00:00 7 4 Norte 23 Noroeste 0 -- -- 86
2019-04-21 21:00:00 7.1 4 Noroeste 11 Nordeste 0 -- -- 85
2019-04-21 20:00:00 7.3 7 Norte 17 Norte 0 -- -- 83
2019-04-21 19:00:00 7.5 12 Norte 23 Norte 0 -- -- 83
2019-04-21 18:00:00 7.5 14 Norte 24 Norte 0 -- -- 83
2019-04-21 17:00:00 7.2 9 Noroeste 17 Norte 0 -- -- 82
2019-04-21 16:00:00 7 12 Norte 21 Norte 0 -- -- 87
2019-04-21 15:00:00 6.8 7 Norte 19 Norte 0 -- -- 90
2019-04-21 14:00:00 6.7 10 Norte 25 Norte 0 -- -- 86
2019-04-21 13:00:00 6 9 Nordeste 18 Nordeste 0.6 -- -- 93
2019-04-21 12:00:00 5.4 10 Nordeste 16 Nordeste 0.2 -- -- 93
2019-04-21 11:00:00 5.7 11 Nordeste 22 Nordeste 0 -- -- 90
2019-04-21 10:00:00 5.6 10 Noroeste 19 Noroeste 0 -- -- 92
2019-04-21 09:00:00 5.4 10 Noroeste 14 Oeste 0 -- -- 92
2019-04-21 08:00:00 5.5 5 Noroeste 10 Oeste 0 -- -- 91
2019-04-21 07:00:00 5.4 3 Oeste 12 Sudeste 0 -- -- 91
2019-04-21 06:00:00 5.4 11 Sudeste 23 Sudeste 0 -- -- 87
2019-04-21 05:00:00 5.5 6 Sudeste 28 Sudeste 0.2 -- -- 89
2019-04-21 04:00:00 5.3 17 Sudeste 32 Sudeste 0 -- -- 87
2019-04-21 03:00:00 5.9 23 Sudeste 37 Sudeste 0 -- -- 82
2019-04-21 02:00:00 6.6 23 Sudeste 33 Sudeste 0 -- -- 80
2019-04-21 01:00:00 6.9 16 Sudeste 34 Sudeste 0 -- -- 78
2019-04-21 00:00:00 7.9 21 Sudeste 48 Sudeste 0 -- -- 74
2019-04-20 23:00:00 8.6 18 Sudeste 29 Sudeste 0 -- -- 69
2019-04-20 22:00:00 9.4 18 Sudeste 32 Sudeste 0 -- -- 64
2019-04-20 21:00:00 10.8 14 Sudeste 27 Sudeste 0 -- -- 54
2019-04-20 20:00:00 13.1 15 Este 23 Sudeste 0 -- -- 41
2019-04-20 19:00:00 14.1 13 Sudeste 25 Sudeste 0 -- -- 46
2019-04-20 18:00:00 15.2 17 Este 34 Este 0 -- -- 37
2019-04-20 17:00:00 16.1 19 Este 38 Sudeste 0 -- -- 37
2019-04-20 16:00:00 15.6 28 Sudeste 48 Este 0 -- -- 43
2019-04-20 15:00:00 16.1 20 Este 38 Este 0 -- -- 41
2019-04-20 14:00:00 14.9 20 Nordeste 36 Nordeste 0 -- -- 51
2019-04-20 13:00:00 14.2 20 Nordeste 47 Nordeste 0 -- -- 50
2019-04-20 12:00:00 14.5 25 Nordeste 40 Nordeste 0 -- -- 48
2019-04-20 11:00:00 14.6 10 Sudeste 30 Sudeste 0 -- -- 42
2019-04-20 10:00:00 12.9 8 Noroeste 19 Noroeste 0 -- -- 49
2019-04-20 09:00:00 9.9 10 Noroeste 22 Noroeste 0 -- -- 64
2019-04-20 08:00:00 7.5 12 Oeste 19 Oeste 0 -- -- 73
2019-04-20 07:00:00 7.3 7 Oeste 20 Sudoeste 0 -- -- 75
2019-04-20 06:00:00 7.4 6 Norte 21 Nordeste 0 -- -- 80
2019-04-20 05:00:00 6 6 Nordeste 15 Noroeste 0 -- -- 82
2019-04-20 04:00:00 8.1 6 Oeste 31 Noroeste 0 -- -- 72
2019-04-20 03:00:00 9.2 8 Noroeste 33 Sudeste 0 -- -- 66
2019-04-20 02:00:00 10.3 11 Nordeste 23 Sudeste 0 -- -- 61
2019-04-20 01:00:00 11.1 9 Nordeste 22 Sudeste 0 -- -- 55
2019-04-20 00:00:00 11.3 8 Sudoeste 40 Este 0 -- -- 55
2019-04-19 23:00:00 11.8 18 Sudeste 31 Sudeste 0 -- -- 52
2019-04-19 22:00:00 12 12 Este 57 Noroeste 0 -- -- 56
2019-04-19 21:00:00 10.9 9 Este 37 Norte 0 -- -- 71
2019-04-19 20:00:00 11.3 17 Noroeste 32 Noroeste 0 -- -- 71
2019-04-19 19:00:00 11.9 13 Norte 46 Este 0 -- -- 64
2019-04-19 18:00:00 13.1 12 Este 37 Noroeste 0 -- -- 52
2019-04-19 17:00:00 12.4 16 Nordeste 40 Norte 0 -- -- 63
2019-04-19 16:00:00 10.9 22 Norte 47 Noroeste 0 -- -- 74
2019-04-19 15:00:00 10.9 23 Norte 51 Noroeste 0 -- -- 77
2019-04-19 14:00:00 10 26 Noroeste 44 Noroeste 0 -- -- 80
2019-04-19 13:00:00 8.8 14 Norte 49 Este 0 -- -- 83
2019-04-19 12:00:00 10.5 22 Este 53 Este 0 -- -- 71
2019-04-19 11:00:00 9.8 20 Este 49 Este 0 -- -- 74
2019-04-19 10:00:00 8.2 26 Sudeste 54 Sudeste 0.2 -- -- 85
2019-04-19 09:00:00 7.4 25 Sudeste 43 Sudeste 0.2 -- -- 90
2019-04-19 08:00:00 7.2 22 Sudeste 36 Sudeste 1.2 -- -- 91
2019-04-19 07:00:00 6.9 24 Sudeste 46 Sudeste 2.8 -- -- 91
2019-04-19 06:00:00 7 31 Sudeste 52 Sudeste 3.8 -- -- 90
2019-04-19 05:00:00 7.4 21 Sudeste 42 Este 2.8 -- -- 88
2019-04-19 04:00:00 7.6 25 Sudeste 49 Sudeste 0.6 -- -- 84
2019-04-19 03:00:00 7.4 15 Sudeste 35 Sudeste 2.2 -- -- 87
2019-04-19 02:00:00 6.7 21 Sudeste 33 Sudeste 2.4 -- -- 89
2019-04-19 01:00:00 6.7 8 Este 39 Sudeste 3.2 -- -- 93
2019-04-19 00:00:00 7.1 26 Sudeste 43 Sudeste 2.8 -- -- 90
2019-04-18 23:00:00 7.7 24 Sudeste 49 Sudeste 0.6 -- -- 84
2019-04-18 22:00:00 8.3 24 Sudeste 48 Sudeste 0.6 -- -- 81
2019-04-18 21:00:00 9.3 23 Este 36 Este 0.2 -- -- 73
2019-04-18 20:00:00 9.8 16 Este 40 Este 0 -- -- 74
2019-04-18 19:00:00 10.3 12 Nordeste 28 Este 0 -- -- 73
2019-04-18 18:00:00 9.9 7 Este 19 Sudeste 1 -- -- 79
2019-04-18 17:00:00 9.9 16 Este 42 Este 0.2 -- -- 77
2019-04-18 16:00:00 11.5 28 Sudeste 42 Sudeste 0 -- -- 65
2019-04-18 15:00:00 12.8 17 Sudeste 41 Sudeste 0 -- -- 63
2019-04-18 14:00:00 11.5 26 Sudeste 52 Sudeste 0 -- -- 68
2019-04-18 13:00:00 11 23 Sudeste 44 Sudeste 0 -- -- 74
2019-04-18 12:00:00 8.6 9 Norte 13 Norte 0 -- -- 95
2019-04-18 11:00:00 7.7 5 Oeste 14 Este 1.4 -- -- 96
2019-04-18 10:00:00 7.1 3 Sudoeste 15 Noroeste 3.4 -- -- 97
2019-04-18 09:00:00 7.4 3 Sudoeste 8 Sudoeste 0 -- -- 96
2019-04-18 08:00:00 7.2 3 Noroeste 14 Noroeste 0 -- -- 96
2019-04-18 07:00:00 7.3 9 Noroeste 17 Noroeste 0 -- -- 95
2019-04-18 06:00:00 8.4 6 Noroeste 13 Sudeste 0 -- -- 93
2019-04-18 05:00:00 10.5 7 Sudeste 15 Sudeste 0 -- -- 79
2019-04-18 04:00:00 8 0 Calma 10 Norte 0 -- -- 93
2019-04-18 03:00:00 8.1 5 Norte 8 Norte 0 -- -- 92
2019-04-18 02:00:00 8.5 0 Calma 18 Noroeste 0 -- -- 89
2019-04-18 01:00:00 10.8 10 Noroeste 25 Sudeste 0 -- -- 77
2019-04-18 00:00:00 14.3 15 Sudeste 38 Sudeste 0 -- -- 57
2019-04-17 23:00:00 12.5 28 Sudeste 40 Sudeste 0 -- -- 70
2019-04-17 22:00:00 12.7 24 Sudeste 51 Sudeste 0 -- -- 67
2019-04-17 21:00:00 13 28 Sudeste 49 Sudeste 0 -- -- 67
2019-04-17 20:00:00 14.4 25 Sudeste 50 Sudeste 0 -- -- 64
2019-04-17 19:00:00 15.7 24 Sudeste 46 Sudeste 0 -- -- 60
2019-04-17 18:00:00 16.3 25 Sudeste 45 Sudeste 0 -- -- 58
2019-04-17 17:00:00 16.5 26 Sudeste 40 Este 0 -- -- 58
2019-04-17 16:00:00 19.4 24 Sudeste 34 Sudeste 0 -- -- 45
2019-04-17 15:00:00 19.3 13 Sur 21 Sur 0 -- -- 45
2019-04-17 14:00:00 15.9 9 Norte 18 Norte 0 -- -- 64
2019-04-17 13:00:00 12.3 13 Norte 22 Norte 0 -- -- 73
2019-04-17 12:00:00 11.3 14 Noroeste 19 Norte 0 -- -- 77
2019-04-17 11:00:00 9 6 Norte 12 Norte 0 -- -- 85
2019-04-17 10:00:00 7 9 Noroeste 13 Noroeste 0 -- -- 91
2019-04-17 09:00:00 9.1 8 Este 25 Sudeste 0 -- -- 74
2019-04-17 08:00:00 7.2 3 Sudoeste 31 Sudeste 0 -- -- 86
2019-04-17 07:00:00 8.6 22 Sudeste 31 Sudeste 0 -- -- 79
2019-04-17 06:00:00 9 17 Sudeste 32 Sudeste 0 -- -- 79
2019-04-17 05:00:00 9.4 17 Sudeste 38 Sudeste 0 -- -- 78
2019-04-17 04:00:00 10.3 20 Sudeste 43 Sudeste 0 -- -- 74
2019-04-17 03:00:00 10.6 33 Sudeste 48 Sudeste 0 -- -- 69
2019-04-17 02:00:00 10.4 30 Sudeste 49 Sudeste 0 -- -- 69
2019-04-17 01:00:00 10.2 18 Sudeste 38 Sudeste 0 -- -- 75
2019-04-17 00:00:00 10.4 26 Sudeste 50 Sudeste 0 -- -- 67
2019-04-16 23:00:00 10.9 28 Sudeste 42 Sudeste 0 -- -- 59
2019-04-16 22:00:00 11.3 29 Sudeste 40 Sudeste 0 -- -- 61
2019-04-16 21:00:00 12 19 Sudeste 33 Sudeste 0 -- -- 62
2019-04-16 20:00:00 14.1 18 Sudeste 25 Sudeste 0 -- -- 55
2019-04-16 19:00:00 15.8 12 Sudeste 20 Sur 0 -- -- 40
2019-04-16 18:00:00 16.6 12 Sur 25 Sur 0 -- -- 39
2019-04-16 17:00:00 16.8 9 Sudeste 24 Sudoeste 0 -- -- 45
2019-04-16 16:00:00 16.2 12 Sur 28 Sudeste 0 -- -- 43
2019-04-16 15:00:00 16.7 12 Sur 24 Sudoeste 0 -- -- 43
2019-04-16 14:00:00 15.5 12 Sur 24 Sur 0 -- -- 47
2019-04-16 13:00:00 15.3 4 Sudoeste 15 Oeste 0 -- -- 50
2019-04-16 12:00:00 13.7 4 Nordeste 12 Sudoeste 0 -- -- 52
2019-04-16 11:00:00 10.6 6 Sudoeste 20 Sur 0 -- -- 67
2019-04-16 10:00:00 11.8 5 Noroeste 8 Norte 0 -- -- 68
2019-04-16 09:00:00 10.3 2 Sudeste 8 Este 0 -- -- 74
2019-04-16 08:00:00 6.2 4 Este 8 Norte 0 -- -- 94
2019-04-16 07:00:00 6.2 3 Nordeste 8 Noroeste 0 -- -- 96
2019-04-16 06:00:00 6.4 4 Norte 10 Noroeste 0 -- -- 97
2019-04-16 05:00:00 6.3 8 Nordeste 20 Norte 0 -- -- 97
2019-04-16 04:00:00 6.4 8 Norte 22 Nordeste 0.2 -- -- 97
2019-04-16 03:00:00 6.3 13 Norte 34 Nordeste 0 -- -- 97
2019-04-16 02:00:00 7 14 Norte 32 Norte 0 -- -- 97
2019-04-16 01:00:00 7.5 20 Norte 31 Nordeste 0 -- -- 96
2019-04-16 00:00:00 9.1 16 Norte 27 Norte 0 -- -- 93
2019-04-15 23:00:00 10.4 4 Oeste 10 Sudoeste 0.2 -- -- 87
2019-04-15 22:00:00 10.6 4 Noroeste 21 Oeste 0 -- -- 86
2019-04-15 21:00:00 11.4 15 Norte 40 Sudoeste 0 -- -- 82
2019-04-15 20:00:00 17.1 12 Sur 36 Sur 0 -- -- 64
2019-04-15 19:00:00 17.2 18 Sudeste 47 Sur 2.2 -- -- 62
2019-04-15 18:00:00 13.6 35 Sudoeste 56 Sudoeste 2.2 -- -- 72
2019-04-15 17:00:00 19.5 22 Sur 50 Sur 0 -- -- 48
2019-04-15 16:00:00 20.4 27 Sur 45 Sur 0 -- -- 43
2019-04-15 15:00:00 19.1 19 Sur 45 Sur 0 -- -- 50
2019-04-15 14:00:00 19.2 25 Sur 42 Sur 0 -- -- 51
2019-04-15 13:00:00 19.3 18 Sur 38 Sur 0 -- -- 54
2019-04-15 12:00:00 18.7 18 Sur 45 Sudeste 0 -- -- 56
2019-04-15 11:00:00 17.4 16 Sur 27 Sur 0 -- -- 58
2019-04-15 10:00:00 16.7 13 Sur 30 Sudeste 0 -- -- 57
2019-04-15 09:00:00 14.3 17 Sur 28 Sudeste 0 -- -- 63
2019-04-15 08:00:00 10.9 10 Sudeste 17 Sudeste 0 -- -- 74
2019-04-15 07:00:00 9.7 7 Norte 23 Sudeste 0 -- -- 77
2019-04-15 06:00:00 10.7 10 Sudeste 19 Sudeste 0 -- -- 76
2019-04-15 05:00:00 10.7 10 Sudeste 25 Este 0 -- -- 77
2019-04-15 04:00:00 9.5 3 Oeste 10 Sudeste 0 -- -- 79
2019-04-15 03:00:00 11.5 15 Sudeste 25 Sudeste 0 -- -- 72
2019-04-15 02:00:00 11.4 11 Sudeste 21 Sur 0 -- -- 71
2019-04-15 01:00:00 8.3 4 Sur 13 Sudeste 0 -- -- 85
2019-04-15 00:00:00 9.8 6 Sur 13 Sur 0 -- -- 80
2019-04-14 23:00:00 8.1 4 Sudeste 10 Sudoeste 0 -- -- 87
2019-04-14 22:00:00 10.5 6 Sudoeste 10 Noroeste 0 -- -- 81
2019-04-14 21:00:00 13.2 4 Noroeste 22 Norte 0 -- -- 70
2019-04-14 20:00:00 15.2 15 Nordeste 28 Nordeste 0 -- -- 62
2019-04-14 19:00:00 17 15 Norte 24 Norte 0 -- -- 50
2019-04-14 18:00:00 18.1 8 Norte 17 Norte 0 -- -- 47
2019-04-14 17:00:00 17.9 8 Norte 15 Nordeste 0 -- -- 49
2019-04-14 16:00:00 17.5 7 Norte 24 Noroeste 0 -- -- 47
2019-04-14 15:00:00 17.7 10 Norte 19 Sudoeste 0 -- -- 50
2019-04-14 14:00:00 16.8 6 Sur 17 Oeste 0 -- -- 58
2019-04-14 13:00:00 17.3 6 Noroeste 18 Sur 0 -- -- 49
2019-04-14 12:00:00 17.2 6 Sudoeste 14 Oeste 0 -- -- 46
2019-04-14 11:00:00 17 4 Noroeste 8 Noroeste 0 -- -- 44
2019-04-14 10:00:00 14 2 Sudoeste 5 Este 0 -- -- 52
2019-04-14 09:00:00 10.8 4 Sudeste 9 Este 0 -- -- 61
2019-04-14 08:00:00 8.1 6 Sudeste 9 Sudeste 0 -- -- 63
2019-04-14 07:00:00 7.4 6 Sur 8 Sudeste 0 -- -- 60
2019-04-14 06:00:00 8.1 2 Sudoeste 10 Sudeste 0 -- -- 57
2019-04-14 05:00:00 7.7 3 Sudeste 11 Este 0 -- -- 58
2019-04-14 04:00:00 7.2 4 Sudeste 13 Sudeste 0 -- -- 58
2019-04-14 03:00:00 6.6 8 Sudeste 12 Este 0 -- -- 58
2019-04-14 02:00:00 5.4 6 Sudeste 11 Sudeste 0 -- -- 54
2019-04-14 01:00:00 5.2 8 Sudeste 12 Sudeste 0 -- -- 48
2019-04-14 00:00:00 4.3 4 Sur 9 Sudeste 0 -- -- 47
2019-04-13 23:00:00 5.6 6 Sudeste 12 Sudeste 0 -- -- 35
2019-04-13 22:00:00 6.2 6 Sudeste 10 Sudeste 0 -- -- 32
2019-04-13 21:00:00 10.6 4 Sur 17 Norte 0 -- -- 24
2019-04-13 20:00:00 15.4 12 Norte 27 Norte 0 -- -- 15
2019-04-13 19:00:00 17.8 10 Norte 16 Nordeste 0 -- -- 13
2019-04-13 18:00:00 20.1 3 Sur 16 Nordeste 0 -- -- 11
2019-04-13 17:00:00 18.2 7 Nordeste 17 Nordeste 0 -- -- 11
2019-04-13 16:00:00 17.9 8 Norte 23 Nordeste 0 -- -- 12
2019-04-13 15:00:00 16.7 9 Norte 25 Noroeste 0 -- -- 13
2019-04-13 14:00:00 15.9 15 Norte 29 Norte 0 -- -- 14
2019-04-13 13:00:00 15 14 Norte 22 Nordeste 0 -- -- 12
2019-04-13 12:00:00 14.8 5 Sur 11 Noroeste 0 -- -- 14
2019-04-13 11:00:00 13.9 3 Noroeste 9 Noroeste 0 -- -- 13
2019-04-13 10:00:00 14.8 2 Norte 5 Nordeste 0 -- -- 12
2019-04-13 09:00:00 7.6 4 Sudeste 9 Sudeste 0 -- -- 36
2019-04-13 08:00:00 -2.2 4 Sudeste 10 Sudeste 0 -- -- 57
2019-04-13 07:00:00 -2.1 4 Sudeste 11 Sudeste 0 -- -- 55
2019-04-13 06:00:00 -2.5 5 Sudeste 13 Sudeste 0 -- -- 59
2019-04-13 05:00:00 -2.2 5 Sur 13 Sudeste 0 -- -- 64
2019-04-13 04:00:00 -1.7 6 Sur 13 Sudeste 0 -- -- 64
2019-04-13 03:00:00 0.5 4 Sudoeste 10 Sudeste 0 -- -- 55
2019-04-13 02:00:00 -0.4 7 Sudeste 9 Sudeste 0 -- -- 69
2019-04-13 01:00:00 -0.3 5 Sudeste 10 Sudeste 0 -- -- 80
2019-04-13 00:00:00 1.8 4 Sur 8 Sudoeste 0 -- -- 75
2019-04-12 23:00:00 5.7 4 Noroeste 14 Norte 0 -- -- 60
2019-04-12 22:00:00 6 8 Noroeste 15 Norte 0 -- -- 58
2019-04-12 21:00:00 7.3 10 Norte 29 Norte 0 -- -- 53
2019-04-12 20:00:00 10.4 18 Norte 33 Norte 0 -- -- 45
2019-04-12 19:00:00 11.8 19 Norte 37 Norte 0 -- -- 44
2019-04-12 18:00:00 12.2 20 Norte 35 Nordeste 0 -- -- 40
2019-04-12 17:00:00 11.8 22 Norte 40 Norte 0 -- -- 40
2019-04-12 16:00:00 11.1 24 Norte 37 Norte 0 -- -- 48
2019-04-12 15:00:00 10.2 21 Norte 36 Nordeste 0 -- -- 46
2019-04-12 14:00:00 9.2 21 Norte 42 Norte 0 -- -- 51
2019-04-12 13:00:00 8.4 21 Norte 39 Norte 0 -- -- 56
2019-04-12 12:00:00 7.5 27 Norte 38 Norte 0 -- -- 58
2019-04-12 11:00:00 5.7 21 Norte 37 Norte 0 -- -- 67
2019-04-12 10:00:00 4.7 22 Norte 36 Norte 0 -- -- 73
2019-04-12 09:00:00 4.4 9 Norte 16 Norte 0 -- -- 77
2019-04-12 08:00:00 2 5 Norte 20 Nordeste 0 -- -- 86
2019-04-12 07:00:00 1.9 6 Norte 24 Norte 0 -- -- 87
2019-04-12 06:00:00 2.5 11 Norte 22 Norte 0 -- -- 86
2019-04-12 05:00:00 2.6 12 Norte 24 Norte 0 -- -- 85
2019-04-12 04:00:00 3.6 14 Norte 25 Norte 0 -- -- 82
2019-04-12 03:00:00 3.5 9 Norte 21 Norte 0 -- -- 82
2019-04-12 02:00:00 3.4 13 Norte 30 Norte 0 -- -- 80
2019-04-12 01:00:00 3.3 5 Noroeste 19 Norte 0 -- -- 83
2019-04-12 00:00:00 3.4 15 Norte 31 Norte 0 -- -- 82
2019-04-11 23:00:00 4 20 Norte 36 Norte 0 -- -- 81
2019-04-11 22:00:00 4.4 16 Norte 33 Norte 0 -- -- 80
2019-04-11 21:00:00 5.3 18 Norte 40 Noroeste 0 -- -- 77
2019-04-11 20:00:00 6.2 22 Norte 37 Noroeste 0 -- -- 73
2019-04-11 19:00:00 7.5 21 Norte 35 Norte 0 -- -- 68
2019-04-11 18:00:00 7.2 21 Norte 48 Norte 0 -- -- 71
2019-04-11 17:00:00 8.5 24 Norte 36 Norte 0 -- -- 62
2019-04-11 16:00:00 8.8 21 Norte 38 Norte 0 -- -- 60
2019-04-11 15:00:00 7.9 24 Norte 40 Noroeste 0 -- -- 62
2019-04-11 14:00:00 7.7 27 Norte 40 Norte 0 -- -- 63
2019-04-11 13:00:00 7.3 23 Norte 43 Norte 0 -- -- 61
2019-04-11 12:00:00 8 21 Norte 42 Norte 0 -- -- 59
2019-04-11 11:00:00 5.4 23 Norte 41 Noroeste 0 -- -- 67
2019-04-11 10:00:00 5.1 24 Norte 38 Norte 0 -- -- 66
2019-04-11 09:00:00 4.6 14 Norte 21 Norte 0 -- -- 74
2019-04-11 08:00:00 3.2 11 Norte 31 Norte 0 -- -- 82
2019-04-11 07:00:00 3.1 8 Norte 16 Norte 0 -- -- 83
2019-04-11 06:00:00 2.7 11 Norte 24 Norte 0 -- -- 86
2019-04-11 05:00:00 3.6 14 Norte 32 Norte 0 -- -- 82
2019-04-11 04:00:00 4.1 17 Norte 33 Norte 0 -- -- 81
2019-04-11 03:00:00 4 14 Norte 30 Nordeste 0 -- -- 81
2019-04-11 02:00:00 3.7 14 Norte 27 Norte 0 -- -- 85
2019-04-11 01:00:00 3.2 13 Norte 29 Norte 0 -- -- 87
2019-04-11 00:00:00 4.2 16 Norte 27 Norte 0 -- -- 83
2019-04-10 23:00:00 3.8 19 Norte 33 Norte 0 -- -- 83
2019-04-10 22:00:00 4.9 21 Norte 36 Norte 0 -- -- 77
2019-04-10 21:00:00 5.8 20 Norte 36 Noroeste 0 -- -- 73
2019-04-10 20:00:00 6.6 24 Noroeste 41 Noroeste 0 -- -- 71
2019-04-10 19:00:00 8.1 22 Norte 42 Norte 0 -- -- 61
2019-04-10 18:00:00 8.3 25 Norte 40 Norte 0 -- -- 60
2019-04-10 17:00:00 8.2 24 Norte 35 Norte 0 -- -- 57
2019-04-10 16:00:00 8.4 19 Norte 35 Norte 0 -- -- 59
2019-04-10 15:00:00 8 22 Norte 36 Norte 0 -- -- 66
2019-04-10 14:00:00 9 18 Norte 36 Norte 0 -- -- 58
2019-04-10 13:00:00 7.6 18 Norte 31 Norte 0 -- -- 63
2019-04-10 12:00:00 7.6 15 Norte 27 Norte 0 -- -- 62
2019-04-10 11:00:00 6.2 9 Norte 16 Norte 0 -- -- 69
2019-04-10 10:00:00 5.2 7 Oeste 18 Oeste 0 -- -- 75
2019-04-10 09:00:00 3.9 7 Oeste 27 Sudoeste 0 -- -- 82
2019-04-10 08:00:00 2.9 12 Oeste 24 Sudoeste 0 -- -- 87
2019-04-10 07:00:00 3 4 Noroeste 14 Oeste 0 -- -- 86
2019-04-10 06:00:00 1.3 7 Sudeste 10 Sudeste 0 -- -- 87
2019-04-10 05:00:00 2.8 6 Este 16 Sudoeste 0 -- -- 87
2019-04-10 04:00:00 1.5 4 Sur 13 Sur 0 -- -- 91
2019-04-10 03:00:00 3 4 Noroeste 13 Sudoeste 0 -- -- 81
2019-04-10 02:00:00 3.7 6 Oeste 12 Oeste 0 -- -- 81
2019-04-10 01:00:00 3.9 7 Sudoeste 16 Oeste 0 -- -- 84
2019-04-10 00:00:00 4.6 7 Noroeste 10 Noroeste 0 -- -- 86
2019-04-09 23:00:00 4.3 0 Calma 7 Sudoeste 0 -- -- 89
2019-04-09 22:00:00 4.8 7 Norte 20 Oeste 0 -- -- 85
2019-04-09 21:00:00 6 8 Oeste 33 Oeste 0 -- -- 75
2019-04-09 20:00:00 6 18 Oeste 32 Oeste 0 -- -- 76
2019-04-09 19:00:00 6.8 17 Sudoeste 30 Sudoeste 0.2 -- -- 76
2019-04-09 18:00:00 6 10 Sudoeste 41 Oeste 0.2 -- -- 85
2019-04-09 17:00:00 10.1 15 Oeste 42 Sudoeste 0 -- -- 62
2019-04-09 16:00:00 8.5 19 Sudoeste 37 Sudoeste 0 -- -- 67
2019-04-09 15:00:00 9.8 15 Sudoeste 41 Sudoeste 0 -- -- 61
2019-04-09 14:00:00 9.8 17 Sudoeste 44 Sudoeste 0 -- -- 59
2019-04-09 13:00:00 9.1 16 Sudoeste 36 Sudoeste 0 -- -- 58
2019-04-09 12:00:00 7.5 17 Sudoeste 35 Sudoeste 0 -- -- 64
2019-04-09 11:00:00 7.3 13 Sudoeste 27 Sudoeste 0 -- -- 67
2019-04-09 10:00:00 7.1 13 Sudoeste 33 Sudoeste 0 -- -- 73
2019-04-09 09:00:00 4 10 Sudoeste 23 Sudoeste 0 -- -- 84
2019-04-09 08:00:00 3.6 8 Sur 17 Sudoeste 0 -- -- 85
2019-04-09 07:00:00 4 6 Sudoeste 24 Sudoeste 0 -- -- 85
2019-04-09 06:00:00 3.4 10 Sudoeste 17 Sudoeste 0 -- -- 87
2019-04-09 05:00:00 3.8 14 Sudoeste 35 Sudoeste 0 -- -- 82
2019-04-09 04:00:00 4.4 22 Sudoeste 35 Sudoeste 0 -- -- 84
2019-04-09 03:00:00 4.8 19 Sudoeste 35 Sudoeste 0 -- -- 82
2019-04-09 02:00:00 5.4 12 Sudoeste 28 Sur 0 -- -- 79
2019-04-09 01:00:00 5.5 7 Sur 18 Oeste 0 -- -- 81
2019-04-09 00:00:00 5.3 6 Sudeste 11 Sudeste 0 -- -- 90
2019-04-08 23:00:00 5.9 4 Sur 13 Oeste 0 -- -- 92
2019-04-08 22:00:00 6.1 4 Oeste 10 Oeste 0 -- -- 90
2019-04-08 21:00:00 7.1 3 Oeste 17 Norte 0 -- -- 85
2019-04-08 20:00:00 11.4 13 Oeste 26 Sudoeste 0 -- -- 64
2019-04-08 19:00:00 13.7 14 Oeste 33 Sudoeste 0 -- -- 37
2019-04-08 18:00:00 13.7 15 Oeste 32 Noroeste 0 -- -- 41
2019-04-08 17:00:00 13.2 21 Oeste 39 Oeste 0 -- -- 48
2019-04-08 16:00:00 13.1 19 Oeste 42 Sudoeste 0 -- -- 53
2019-04-08 15:00:00 13.6 15 Oeste 39 Sudoeste 0 -- -- 48
2019-04-08 14:00:00 11.8 15 Oeste 33 Oeste 0 -- -- 60
2019-04-08 13:00:00 11.1 11 Oeste 34 Sudoeste 0 -- -- 70
2019-04-08 12:00:00 10.1 12 Sudoeste 24 Sur 0 -- -- 80
2019-04-08 11:00:00 6.6 12 Sur 27 Sur 0 -- -- 91
2019-04-08 10:00:00 6.2 13 Sur 38 Sur 0.2 -- -- 90
2019-04-08 09:00:00 6 11 Sur 23 Sur 0 -- -- 89
2019-04-08 08:00:00 5.2 14 Sur 32 Sur 0 -- -- 92
2019-04-08 07:00:00 5 8 Sudoeste 31 Sur 0 -- -- 92
2019-04-08 06:00:00 4.7 14 Sur 40 Sudoeste 0 -- -- 93
2019-04-08 05:00:00 4.6 21 Sur 40 Sudoeste 0 -- -- 92
2019-04-08 04:00:00 4.3 21 Sur 43 Sur 0 -- -- 91
2019-04-08 03:00:00 4 21 Sur 36 Sudeste 0 -- -- 90
2019-04-08 02:00:00 3.9 14 Sudeste 36 Sudeste 0.2 -- -- 87
2019-04-08 01:00:00 4 15 Sur 32 Sudoeste 0.2 -- -- 85
2019-04-08 00:00:00 5 17 Sudoeste 34 Sudoeste 0 -- -- 78
2019-04-07 23:00:00 6.3 13 Sudoeste 28 Sudoeste 0 -- -- 64
2019-04-07 22:00:00 6.6 5 Sudeste 15 Sur 0 -- -- 56
2019-04-07 21:00:00 6.8 10 Sur 20 Sudoeste 0 -- -- 58
2019-04-07 20:00:00 7.3 14 Sudoeste 35 Sudoeste 0 -- -- 55
2019-04-07 19:00:00 8.6 17 Sudoeste 35 Sudoeste 0 -- -- 49
2019-04-07 18:00:00 9.8 20 Sudoeste 38 Sudoeste 0 -- -- 49
2019-04-07 17:00:00 10.2 17 Sudoeste 44 Sudoeste 0 -- -- 50
2019-04-07 16:00:00 7.9 23 Sudoeste 42 Oeste 0 -- -- 58
2019-04-07 15:00:00 8.5 18 Sudoeste 33 Sudoeste 0 -- -- 59
2019-04-07 14:00:00 7.7 14 Oeste 28 Oeste 0 -- -- 59
2019-04-07 13:00:00 7.1 13 Oeste 36 Oeste 0 -- -- 60
2019-04-07 12:00:00 7.5 18 Oeste 31 Sudoeste 0 -- -- 57
2019-04-07 11:00:00 6.8 14 Oeste 33 Oeste 0 -- -- 68
2019-04-07 10:00:00 5 17 Oeste 40 Sudoeste 0 -- -- 69
2019-04-07 09:00:00 2.1 19 Sudoeste 34 Sudoeste 0 -- -- 81
2019-04-07 08:00:00 1.2 13 Sudoeste 40 Sudoeste 0 -- -- 82
2019-04-07 07:00:00 1.2 13 Sudoeste 36 Oeste 0 -- -- 84
2019-04-07 06:00:00 1.3 21 Sudoeste 40 Sudoeste 0 -- -- 85
2019-04-07 05:00:00 1.7 19 Sudoeste 38 Sudoeste 0 -- -- 85
2019-04-07 04:00:00 2 20 Oeste 38 Sudoeste 0 -- -- 86
2019-04-07 03:00:00 2 27 Sudoeste 50 Sudoeste 0 -- -- 84
2019-04-07 02:00:00 2 23 Sudoeste 41 Sudoeste 0 -- -- 87
2019-04-07 01:00:00 1.9 20 Sudoeste 40 Sudoeste 0 -- -- 89
2019-04-07 00:00:00 2.1 15 Sudoeste 39 Sudoeste 0 -- -- 89
2019-04-06 23:00:00 1.7 13 Sudoeste 38 Sudoeste 0.4 -- -- 90
2019-04-06 22:00:00 2.5 13 Sudoeste 26 Sudoeste 0 -- -- 87
2019-04-06 21:00:00 2.6 11 Sudoeste 30 Sudoeste 0.2 -- -- 85
2019-04-06 20:00:00 4 5 Oeste 23 Sudoeste 0 -- -- 82
2019-04-06 19:00:00 3 11 Sudoeste 35 Sudoeste 0.4 -- -- 88
2019-04-06 18:00:00 2.9 14 Oeste 31 Sudoeste 0.4 -- -- 87
2019-04-06 17:00:00 4.7 10 Sudoeste 35 Sudoeste 0.2 -- -- 81
2019-04-06 16:00:00 4.3 25 Sudoeste 48 Oeste 0 -- -- 79
2019-04-06 15:00:00 4.6 9 Sudoeste 35 Sudoeste 0.4 -- -- 89
2019-04-06 14:00:00 2 22 Sudoeste 47 Sudoeste 1.4 -- -- 91
2019-04-06 13:00:00 4.5 27 Sudoeste 48 Sudoeste 0 -- -- 77
2019-04-06 12:00:00 2.8 21 Sudoeste 41 Sudoeste 0 -- -- 80
2019-04-06 11:00:00 3.8 25 Sudoeste 52 Sudoeste 0 -- -- 74
2019-04-06 10:00:00 3.2 30 Sudoeste 53 Sudoeste 0 -- -- 78
2019-04-06 09:00:00 1.4 27 Sudoeste 46 Sudoeste 0 -- -- 85
2019-04-06 08:00:00 1.2 20 Sudoeste 40 Sudoeste 0 -- -- 86
2019-04-06 07:00:00 1.1 13 Sudoeste 31 Sudoeste 0 -- -- 88
2019-04-06 06:00:00 1.2 8 Sur 32 Sudoeste 0 -- -- 87
2019-04-06 05:00:00 1.2 20 Sudoeste 44 Sudoeste 0 -- -- 88
2019-04-06 04:00:00 1.5 24 Sudoeste 43 Sudoeste 0 -- -- 87
2019-04-06 03:00:00 1.3 22 Sudoeste 46 Sudoeste 0 -- -- 89
2019-04-06 02:00:00 1.4 27 Sudoeste 45 Oeste 0.2 -- -- 86
2019-04-06 01:00:00 1.4 22 Sudoeste 42 Sudoeste 0 -- -- 84
2019-04-06 00:00:00 1.5 13 Sudoeste 28 Sudoeste 0 -- -- 89
2019-04-05 23:00:00 2 3 Oeste 12 Sudoeste 0 -- -- 87
2019-04-05 22:00:00 1.9 6 Sudoeste 17 Sudoeste 0 -- -- 89
2019-04-05 21:00:00 1.4 8 Sur 16 Sudoeste 0.8 -- -- 92
2019-04-05 20:00:00 1.7 5 Noroeste 32 Sudoeste 0.4 -- -- 88
2019-04-05 19:00:00 3.8 14 Sudoeste 27 Sudoeste 0 -- -- 85
2019-04-05 18:00:00 5.7 19 Sur 43 Sur 0 -- -- 74
2019-04-05 17:00:00 5.7 26 Sur 49 Sur 0 -- -- 79
2019-04-05 16:00:00 3.9 28 Sudeste 40 Sudeste 0.8 -- -- 88
2019-04-05 15:00:00 4.7 25 Sur 39 Sur 0.2 -- -- 80
2019-04-05 14:00:00 5 21 Sur 43 Sur 0.2 -- -- 78
2019-04-05 13:00:00 6.1 17 Sur 45 Sudeste 0 -- -- 71
2019-04-05 12:00:00 5.5 14 Sur 46 Sur 0 -- -- 79
2019-04-05 11:00:00 5.4 24 Sur 47 Sur 0 -- -- 77
2019-04-05 10:00:00 4.1 14 Sur 44 Sur 0.4 -- -- 87
2019-04-05 09:00:00 2.8 26 Sur 47 Sur 0.4 -- -- 87
2019-04-05 08:00:00 2.7 19 Sur 51 Sur 0 -- -- 85
2019-04-05 07:00:00 2.9 24 Sur 49 Sur 0 -- -- 82
2019-04-05 06:00:00 3.7 24 Sur 45 Sur 0 -- -- 71
2019-04-05 05:00:00 5.1 23 Sudoeste 37 Sudoeste 0 -- -- 54
2019-04-05 04:00:00 5.9 18 Sur 42 Sudeste 0 -- -- 42
2019-04-05 03:00:00 6.3 18 Sudeste 34 Sur 0 -- -- 39
2019-04-05 02:00:00 6.5 18 Sudeste 34 Sudeste 0 -- -- 37
2019-04-05 01:00:00 6.6 22 Sudeste 31 Sudeste 0 -- -- 39
2019-04-05 00:00:00 6.7 16 Sudeste 28 Sur 0 -- -- 37
2019-04-04 23:00:00 6.9 15 Sudeste 36 Sur 0 -- -- 36
2019-04-04 22:00:00 7.3 16 Sur 31 Sur 0 -- -- 34
2019-04-04 21:00:00 7.7 14 Sur 32 Sudoeste 0 -- -- 31
2019-04-04 20:00:00 8.3 20 Sur 37 Sur 0 -- -- 31
2019-04-04 19:00:00 9.2 14 Sudoeste 33 Sudoeste 0 -- -- 34
2019-04-04 18:00:00 10.7 13 Sudoeste 34 Sudoeste 0 -- -- 37
2019-04-04 17:00:00 9.6 17 Sudoeste 37 Sudoeste 0 -- -- 39
2019-04-04 16:00:00 8.5 19 Sudoeste 39 Sudoeste 0 -- -- 38
2019-04-04 15:00:00 8.7 14 Sudoeste 31 Sudoeste 0 -- -- 42
2019-04-04 14:00:00 7.8 12 Sudoeste 28 Sudoeste 0 -- -- 48
2019-04-04 13:00:00 5.8 14 Sur 27 Sudoeste 0 -- -- 57
2019-04-04 12:00:00 3.9 12 Sudoeste 24 Sudoeste 0 -- -- 57
2019-04-04 11:00:00 3.3 12 Sudoeste 25 Sudoeste 0 -- -- 58
2019-04-04 10:00:00 5 4 Oeste 14 Sudeste 0 -- -- 50
2019-04-04 09:00:00 -0.3 12 Sudeste 16 Sudeste 0 -- -- 75
2019-04-04 08:00:00 -3.3 5 Este 10 Sudeste 0 -- -- 83
2019-04-04 07:00:00 -4.3 4 Sudeste 11 Este 0 -- -- 87
2019-04-04 06:00:00 -4 6 Sudeste 10 Sudeste 0 -- -- 89
2019-04-04 05:00:00 -2.8 6 Sudeste 16 Sudeste 0 -- -- 83
2019-04-04 04:00:00 -2.7 7 Sudeste 14 Sudeste 0 -- -- 86
2019-04-04 03:00:00 -2.6 6 Sudoeste 14 Sudoeste 0 -- -- 81
2019-04-04 02:00:00 -2.5 5 Sudeste 11 Sudeste 0 -- -- 81
2019-04-04 01:00:00 -0.5 9 Noroeste 21 Noroeste 0 -- -- 66
2019-04-04 00:00:00 -0.1 10 Noroeste 24 Noroeste 0 -- -- 69
2019-04-03 23:00:00 -0.3 4 Oeste 9 Sudoeste 0 -- -- 82
2019-04-03 22:00:00 1.3 4 Norte 22 Noroeste 0 -- -- 76
2019-04-03 21:00:00 2.1 14 Noroeste 24 Noroeste 0 -- -- 71
2019-04-03 20:00:00 2.1 7 Norte 17 Noroeste 0 -- -- 83
2019-04-03 19:00:00 2 8 Noroeste 33 Noroeste 0 -- -- 89
2019-04-03 18:00:00 2.9 17 Noroeste 24 Noroeste 0.2 -- -- 86
2019-04-03 17:00:00 3.8 13 Norte 18 Nordeste 0 -- -- 83
2019-04-03 16:00:00 4 11 Norte 25 Noroeste 0 -- -- 82
2019-04-03 15:00:00 4.5 14 Norte 19 Norte 0 -- -- 77
2019-04-03 14:00:00 3.1 9 Norte 24 Norte 0.2 -- -- 83
2019-04-03 13:00:00 6.2 12 Oeste 29 Sudoeste 0 -- -- 72
2019-04-03 12:00:00 5.3 10 Sudoeste 22 Sudoeste 0.2 -- -- 82
2019-04-03 11:00:00 6 8 Sudoeste 19 Sudoeste 0 -- -- 79
2019-04-03 10:00:00 5.2 4 Noroeste 10 Noroeste 0 -- -- 85
2019-04-03 09:00:00 4.5 4 Noroeste 16 Sudoeste 0 -- -- 89
2019-04-03 08:00:00 4.4 3 Sudoeste 16 Sudoeste 0 -- -- 90
2019-04-03 07:00:00 4.6 3 Noroeste 9 Sudoeste 0 -- -- 92
2019-04-03 06:00:00 4.1 8 Nordeste 18 Este 0 -- -- 97
2019-04-03 05:00:00 4.2 6 Sudeste 8 Este 0 -- -- 94
2019-04-03 04:00:00 4.8 0 Calma 6 Noroeste 0 -- -- 94
2019-04-03 03:00:00 5 3 Sudoeste 11 Noroeste 0 -- -- 93
2019-04-03 02:00:00 5 4 Noroeste 9 Sudoeste 0 -- -- 92
2019-04-03 01:00:00 5.2 7 Oeste 11 Noroeste 0.2 -- -- 90
2019-04-03 00:00:00 5.4 4 Noroeste 10 Norte 0 -- -- 89
2019-04-02 23:00:00 6 5 Norte 14 Norte 0 -- -- 87
2019-04-02 22:00:00 6.9 6 Sur 15 Este 0 -- -- 89
2019-04-02 21:00:00 7.3 7 Sur 15 Sur 0.6 -- -- 85
2019-04-02 20:00:00 8.8 3 Sudeste 18 Sudeste 0 -- -- 77
2019-04-02 19:00:00 9.9 8 Sudeste 22 Noroeste 0.8 -- -- 76
2019-04-02 18:00:00 9.1 9 Sudoeste 15 Sudoeste 0.2 -- -- 77
2019-04-02 17:00:00 10.3 5 Sudeste 26 Noroeste 0.6 -- -- 65
2019-04-02 16:00:00 11.9 4 Este 18 Noroeste 0.4 -- -- 62
2019-04-02 15:00:00 12.3 8 Noroeste 30 Norte 0 -- -- 53
2019-04-02 14:00:00 11.1 14 Norte 21 Norte 0 -- -- 65
2019-04-02 13:00:00 13.1 5 Norte 15 Norte 0 -- -- 62
2019-04-02 12:00:00 11.2 6 Norte 15 Norte 0 -- -- 67
2019-04-02 11:00:00 8.8 7 Noroeste 12 Noroeste 0 -- -- 84
2019-04-02 10:00:00 6.1 0 Calma 9 Norte 0 -- -- 92
2019-04-02 09:00:00 7.9 2 Sudeste 8 Sudeste 0 -- -- 92
2019-04-02 08:00:00 3.1 3 Sudeste 10 Sudeste 0 -- -- 96
2019-04-02 07:00:00 3.5 5 Sudeste 8 Sudeste 0 -- -- 95
2019-04-02 06:00:00 4.7 3 Sudeste 9 Sudeste 0 -- -- 94
2019-04-02 05:00:00 5 8 Sudeste 12 Sur 0 -- -- 93
2019-04-02 04:00:00 4 6 Sudeste 15 Sudeste 0 -- -- 93
2019-04-02 03:00:00 5.1 12 Sudeste 15 Sudeste 0 -- -- 94
2019-04-02 02:00:00 5.1 0 Calma 8 Sudoeste 0 -- -- 94
2019-04-02 01:00:00 5.5 5 Este 12 Sudeste 0 -- -- 93
2019-04-02 00:00:00 5.8 3 Oeste 10 Sur 0 -- -- 91
2019-04-01 23:00:00 5.5 5 Sudoeste 8 Sur 0 -- -- 93
2019-04-01 22:00:00 5.5 5 Sur 14 Sudeste 0 -- -- 91
2019-04-01 21:00:00 7.2 9 Sudeste 18 Sudeste 0.4 -- -- 88
2019-04-01 20:00:00 7.9 5 Norte 17 Sur 1.2 -- -- 90
2019-04-01 19:00:00 8.5 7 Sur 25 Sudeste 0.2 -- -- 86
2019-04-01 18:00:00 10.8 5 Este 11 Sudeste 1 -- -- 80
2019-04-01 17:00:00 9 6 Nordeste 22 Nordeste 0.6 -- -- 87
2019-04-01 16:00:00 11 15 Noroeste 29 Sudoeste 0 -- -- 74
2019-04-01 15:00:00 10.9 12 Sudeste 21 Sudeste 0 -- -- 73
2019-04-01 14:00:00 10.5 11 Sur 20 Sudeste 0 -- -- 72
2019-04-01 13:00:00 9.9 15 Sudeste 21 Sudeste 0 -- -- 78
2019-04-01 12:00:00 8 5 Norte 10 Norte 0 -- -- 87
2019-04-01 11:00:00 7 4 Norte 10 Norte 0 -- -- 93
2019-04-01 10:00:00 6.2 6 Norte 9 Norte 0 -- -- 95
2019-04-01 09:00:00 5.3 2 Norte 6 Norte 0 -- -- 96
2019-04-01 08:00:00 4.6 3 Noroeste 5 Noroeste 0 -- -- 96
2019-04-01 07:00:00 4.4 2 Nordeste 6 Norte 0 -- -- 96
2019-04-01 06:00:00 4.4 3 Noroeste 5 Noroeste 0 -- -- 96
2019-04-01 05:00:00 4.3 3 Norte 8 Norte 0 -- -- 95
2019-04-01 04:00:00 4.3 4 Noroeste 8 Noroeste 0 -- -- 95
2019-04-01 03:00:00 4.4 4 Noroeste 5 Oeste 0.2 -- -- 94
2019-04-01 02:00:00 4.3 2 Norte 5 Oeste 0.2 -- -- 93
2019-04-01 01:00:00 4.2 0 Calma 10 Norte 0.2 -- -- 93
2019-04-01 00:00:00 4.1 4 Nordeste 6 Nordeste 0.2 -- -- 91
2019-03-31 23:00:00 4 4 Sudeste 16 Este 0.4 -- -- 90
2019-03-31 22:00:00 4 13 Este 26 Sudeste 1.8 -- -- 91
2019-03-31 21:00:00 4.9 14 Sudeste 22 Sudeste 1.2 -- -- 85
2019-03-31 20:00:00 6 9 Sur 17 Sudoeste 0.6 -- -- 84
2019-03-31 19:00:00 7 9 Sur 17 Sudeste 0.4 -- -- 77
2019-03-31 18:00:00 8.2 13 Sudeste 17 Sudeste 0 -- -- 70
2019-03-31 17:00:00 9.2 5 Sudeste 26 Este 0 -- -- 59
2019-03-31 16:00:00 9.9 11 Noroeste 17 Noroeste 0 -- -- 60
2019-03-31 15:00:00 9.4 11 Noroeste 16 Noroeste 0 -- -- 64
2019-03-31 14:00:00 9.2 12 Noroeste 21 Noroeste 0 -- -- 63
2019-03-31 13:00:00 8.4 12 Norte 25 Noroeste 0 -- -- 69
2019-03-31 12:00:00 10.2 11 Noroeste 18 Noroeste 0 -- -- 57
2019-03-31 11:00:00 10.1 6 Norte 11 Norte 0 -- -- 52
2019-03-31 10:00:00 6.6 3 Noroeste 6 Norte 0 -- -- 62
2019-03-31 09:00:00 5.6 4 Este 6 Este 0 -- -- 68
2019-03-31 08:00:00 0.6 4 Sudeste 7 Este 0 -- -- 80
2019-03-31 07:00:00 0.5 0 Calma 7 Sudeste 0 -- -- 81
2019-03-31 06:00:00 -0.3 6 Sudeste 9 Sudeste 0 -- -- 84
2019-03-31 05:00:00 1.2 5 Sudeste 10 Sudeste 0 -- -- 74
2019-03-31 03:00:00 5.8 5 Este 28 Este 0 -- -- 50
2019-03-31 01:00:00 6.2 5 Este 20 Sur 0 -- -- 56
2019-03-31 00:00:00 7.1 8 Sur 36 Sudeste 0 -- -- 52
2019-03-30 23:00:00 8 17 Sudeste 27 Sudeste 0 -- -- 47
2019-03-30 22:00:00 6.7 5 Sudeste 24 Sudeste 0 -- -- 48
2019-03-30 21:00:00 8 15 Sudeste 25 Sudeste 0 -- -- 43
2019-03-30 20:00:00 8.8 14 Sudeste 27 Sudeste 0 -- -- 41
2019-03-30 19:00:00 12.2 15 Este 26 Este 0 -- -- 33
2019-03-30 18:00:00 14.4 16 Este 27 Sudeste 0 -- -- 31
2019-03-30 17:00:00 15 17 Este 31 Sudeste 0 -- -- 32
2019-03-30 16:00:00 15.7 10 Sudeste 27 Sudeste 0 -- -- 30
2019-03-30 15:00:00 15.8 13 Sudeste 30 Sur 0 -- -- 30
2019-03-30 14:00:00 13.8 9 Sur 29 Noroeste 0 -- -- 36
2019-03-30 13:00:00 12.8 16 Norte 23 Norte 0 -- -- 47
2019-03-30 12:00:00 14.1 5 Nordeste 18 Sudoeste 0 -- -- 37
2019-03-30 11:00:00 12.2 10 Sur 21 Noroeste 0 -- -- 38
2019-03-30 10:00:00 11.6 9 Sudoeste 19 Sudoeste 0 -- -- 38
2019-03-30 09:00:00 10 5 Nordeste 9 Nordeste 0 -- -- 42
2019-03-30 08:00:00 6 3 Este 10 Sudeste 0 -- -- 57
2019-03-30 07:00:00 1 3 Sudeste 10 Sudeste 0 -- -- 72
2019-03-30 06:00:00 2.4 9 Este 14 Sudeste 0 -- -- 67
2019-03-30 05:00:00 5.1 6 Oeste 21 Sudeste 0 -- -- 58
2019-03-30 04:00:00 4.2 13 Sudeste 20 Sudeste 0 -- -- 63
2019-03-30 03:00:00 4.5 12 Sudeste 23 Sudeste 0 -- -- 64
2019-03-30 02:00:00 5.8 12 Sudeste 23 Sudeste 0 -- -- 59
2019-03-30 01:00:00 7.6 20 Sudeste 36 Sudeste 0 -- -- 55
2019-03-30 00:00:00 7.3 27 Sudeste 44 Sudeste 0 -- -- 57
2019-03-29 23:00:00 7.9 29 Sudeste 51 Sudeste 0 -- -- 54
2019-03-29 22:00:00 8 31 Sudeste 48 Sudeste 0 -- -- 57
2019-03-29 21:00:00 9 33 Sudeste 64 Sudeste 0 -- -- 56
2019-03-29 20:00:00 10.3 32 Sudeste 49 Sudeste 0 -- -- 47
2019-03-29 19:00:00 12.4 26 Sudeste 40 Sudeste 0 -- -- 39
2019-03-29 18:00:00 14.3 24 Sudeste 37 Este 0 -- -- 32
2019-03-29 17:00:00 15.4 21 Sudeste 34 Sudeste 0 -- -- 32
2019-03-29 16:00:00 16 14 Sudeste 33 Sudeste 0 -- -- 28
2019-03-29 15:00:00 15.6 13 Sur 44 Sur 0 -- -- 27
2019-03-29 14:00:00 14.7 18 Sur 39 Sur 0 -- -- 25
2019-03-29 13:00:00 13.8 16 Sur 30 Sudeste 0 -- -- 30
2019-03-29 12:00:00 13.6 13 Sur 25 Sur 0 -- -- 35
2019-03-29 11:00:00 12.2 14 Sur 22 Sur 0 -- -- 35
2019-03-29 10:00:00 11.9 12 Sudoeste 22 Sudoeste 0 -- -- 38
2019-03-29 09:00:00 10.7 8 Sudeste 15 Sudeste 0 -- -- 41
2019-03-29 08:00:00 6.8 4 Sudeste 12 Sudeste 0 -- -- 58
2019-03-29 07:00:00 3.1 7 Sur 16 Sudeste 0 -- -- 70
2019-03-29 06:00:00 4.2 12 Sudeste 21 Sur 0 -- -- 70
2019-03-29 05:00:00 3.4 8 Sudeste 13 Sur 0 -- -- 75
2019-03-29 04:00:00 1.5 0 Calma 9 Sudeste 0 -- -- 79
2019-03-29 03:00:00 1.6 5 Sudeste 12 Sudeste 0 -- -- 80
2019-03-29 02:00:00 1.4 6 Sudeste 10 Sudeste 0 -- -- 82
2019-03-29 01:00:00 1.6 4 Sur 9 Sudeste 0 -- -- 80
2019-03-29 00:00:00 2.2 4 Sur 9 Sudeste 0 -- -- 77
2019-03-28 23:00:00 2.8 3 Sur 6 Sudeste 0 -- -- 75
2019-03-28 22:00:00 6.8 2 Noroeste 13 Oeste 0 -- -- 61
2019-03-28 21:00:00 7.6 3 Oeste 12 Noroeste 0 -- -- 57
2019-03-28 20:00:00 7.9 0 Calma 13 Norte 0 -- -- 55
2019-03-28 19:00:00 12 11 Norte 22 Norte 0 -- -- 42
2019-03-28 18:00:00 13.6 13 Norte 26 Nordeste 0 -- -- 39
2019-03-28 17:00:00 14.1 14 Norte 25 Noroeste 0 -- -- 37
2019-03-28 16:00:00 14.2 12 Norte 31 Noroeste 0 -- -- 36
2019-03-28 15:00:00 13.8 14 Norte 24 Noroeste 0 -- -- 39
2019-03-28 14:00:00 12.6 13 Norte 24 Noroeste 0 -- -- 39
2019-03-28 13:00:00 12 12 Norte 22 Noroeste 0 -- -- 43
2019-03-28 12:00:00 10.5 12 Noroeste 19 Norte 0 -- -- 46
2019-03-28 11:00:00 9.4 9 Norte 18 Norte 0 -- -- 49
2019-03-28 10:00:00 8.6 8 Noroeste 15 Norte 0 -- -- 51
2019-03-28 09:00:00 8.9 3 Nordeste 8 Norte 0 -- -- 51
2019-03-28 08:00:00 4.3 5 Sudeste 10 Sudeste 0 -- -- 70
2019-03-28 07:00:00 -1.3 5 Sur 10 Sur 0 -- -- 83
2019-03-28 06:00:00 -1.1 6 Sudeste 9 Sur 0 -- -- 81
2019-03-28 05:00:00 -0.8 5 Sur 10 Sur 0 -- -- 79
2019-03-28 04:00:00 0.6 6 Sudeste 10 Sur 0 -- -- 76
2019-03-28 03:00:00 1.4 7 Sudeste 11 Sudeste 0 -- -- 72
2019-03-28 02:00:00 0.2 4 Sudeste 8 Este 0 -- -- 75
2019-03-28 01:00:00 1.2 2 Sudeste 6 Sudeste 0 -- -- 68
2019-03-28 00:00:00 1.8 0 Calma 9 Nordeste 0 -- -- 59
2019-03-27 23:00:00 3.3 2 Noroeste 9 Norte 0 -- -- 49
2019-03-27 22:00:00 5 7 Norte 24 Norte 0 -- -- 40
2019-03-27 21:00:00 6.7 13 Norte 22 Norte 0 -- -- 35
2019-03-27 20:00:00 8.3 12 Norte 28 Norte 0 -- -- 33
2019-03-27 19:00:00 11 18 Norte 35 Norte 0 -- -- 30
2019-03-27 18:00:00 12.9 22 Norte 34 Norte 0 -- -- 25
2019-03-27 17:00:00 13.8 20 Norte 38 Norte 0 -- -- 22
2019-03-27 16:00:00 14.1 19 Norte 40 Noroeste 0 -- -- 25
2019-03-27 15:00:00 13.2 21 Norte 36 Nordeste 0 -- -- 26
2019-03-27 14:00:00 12.6 19 Norte 32 Norte 0 -- -- 25
2019-03-27 13:00:00 11.9 17 Norte 29 Norte 0 -- -- 24
2019-03-27 12:00:00 10.6 16 Norte 26 Norte 0 -- -- 26
2019-03-27 11:00:00 10 15 Nordeste 23 Nordeste 0 -- -- 27
2019-03-27 10:00:00 9.1 9 Norte 19 Noroeste 0 -- -- 29
2019-03-27 09:00:00 8.8 4 Norte 7 Noroeste 0 -- -- 31
2019-03-27 08:00:00 4.2 5 Sudeste 8 Este 0 -- -- 49
2019-03-27 07:00:00 -2.3 3 Sudeste 9 Sur 0 -- -- 69
2019-03-27 06:00:00 -1.3 6 Sur 9 Sur 0 -- -- 65
2019-03-27 05:00:00 -1.8 7 Sudeste 10 Sudeste 0 -- -- 69
2019-03-27 04:00:00 -1.9 5 Sur 8 Sudeste 0 -- -- 71
2019-03-27 03:00:00 -0.9 4 Sudeste 9 Sudeste 0 -- -- 68
2019-03-27 02:00:00 -1.2 4 Sudeste 9 Sudeste 0 -- -- 68
2019-03-27 01:00:00 -0.4 6 Sudeste 8 Sudeste 0 -- -- 63
2019-03-27 00:00:00 2 3 Sudoeste 8 Oeste 0 -- -- 53
2019-03-26 23:00:00 2.7 4 Oeste 12 Norte 0 -- -- 49
2019-03-26 22:00:00 2.9 0 Calma 16 Norte 0 -- -- 50
2019-03-26 21:00:00 4.4 8 Norte 22 Norte 0 -- -- 44
2019-03-26 20:00:00 6.1 13 Norte 23 Norte 0 -- -- 40
2019-03-26 19:00:00 8.8 17 Norte 31 Nordeste 0 -- -- 33
2019-03-26 18:00:00 11.6 20 Norte 32 Norte 0 -- -- 24
2019-03-26 17:00:00 13.2 18 Norte 35 Norte 0 -- -- 19
2019-03-26 16:00:00 13.7 21 Norte 35 Norte 0 -- -- 17
2019-03-26 15:00:00 13.3 18 Norte 30 Norte 0 -- -- 19
2019-03-26 14:00:00 12.4 17 Norte 42 Norte 0 -- -- 26
2019-03-26 13:00:00 10.8 13 Norte 31 Norte 0 -- -- 30
2019-03-26 12:00:00 9.3 17 Norte 26 Norte 0 -- -- 33
2019-03-26 11:00:00 8.1 18 Nordeste 27 Norte 0 -- -- 39
2019-03-26 10:00:00 6.2 17 Norte 25 Norte 0 -- -- 46
2019-03-26 09:00:00 4.8 13 Norte 19 Nordeste 0 -- -- 55
2019-03-26 08:00:00 3 9 Norte 21 Nordeste 0 -- -- 67
2019-03-26 07:00:00 0.4 5 Este 10 Nordeste 0 -- -- 80
2019-03-26 06:00:00 0.6 3 Norte 16 Norte 0 -- -- 82
2019-03-26 05:00:00 1.8 11 Norte 20 Norte 0 -- -- 79
2019-03-26 04:00:00 2.1 9 Norte 23 Norte 0 -- -- 79
2019-03-26 03:00:00 2.8 14 Norte 36 Norte 0 -- -- 78
2019-03-26 02:00:00 3.6 19 Norte 31 Norte 0 -- -- 75
2019-03-26 01:00:00 3.3 11 Norte 27 Norte 0 -- -- 76
2019-03-26 00:00:00 3.6 17 Norte 41 Noroeste 0 -- -- 73
2019-03-25 23:00:00 3.9 22 Norte 36 Norte 0 -- -- 71
2019-03-25 22:00:00 4 17 Norte 33 Nordeste 0 -- -- 70
2019-03-25 21:00:00 4.1 23 Norte 37 Norte 0 -- -- 72
2019-03-25 20:00:00 5.1 21 Norte 35 Norte 0 -- -- 65
2019-03-25 19:00:00 7.7 24 Norte 40 Norte 0 -- -- 53
2019-03-25 18:00:00 9.6 27 Norte 42 Norte 0 -- -- 47
2019-03-25 17:00:00 11 25 Norte 42 Norte 0 -- -- 43
2019-03-25 16:00:00 11.4 27 Norte 40 Norte 0 -- -- 39
2019-03-25 15:00:00 11.6 21 Norte 34 Norte 0 -- -- 39
2019-03-25 14:00:00 10.7 19 Norte 42 Norte 0 -- -- 47
2019-03-25 13:00:00 10.2 20 Norte 33 Nordeste 0 -- -- 55
2019-03-25 12:00:00 9.2 18 Norte 29 Nordeste 0 -- -- 60
2019-03-25 11:00:00 7.5 19 Norte 35 Norte 0 -- -- 66
2019-03-25 10:00:00 6.7 18 Norte 32 Norte 0 -- -- 70
2019-03-25 09:00:00 6.4 17 Norte 27 Norte 0 -- -- 69
2019-03-25 08:00:00 6.5 5 Norte 12 Norte 0 -- -- 65
2019-03-25 07:00:00 4 3 Oeste 10 Noroeste 0 -- -- 69
2019-03-25 06:00:00 4.5 6 Noroeste 12 Oeste 0 -- -- 65
2019-03-25 05:00:00 4.9 3 Oeste 9 Norte 0 -- -- 63
2019-03-25 04:00:00 5.2 3 Oeste 10 Noroeste 0 -- -- 64
2019-03-25 03:00:00 5.7 3 Noroeste 8 Noroeste 0 -- -- 63
2019-03-25 02:00:00 5.6 3 Oeste 12 Norte 0 -- -- 64
2019-03-25 01:00:00 6.5 2 Oeste 9 Norte 0 -- -- 61
2019-03-25 00:00:00 6.3 4 Norte 10 Norte 0 -- -- 62